sensor_id;sensor_type;location;lat;lon;timestamp;P1;durP1;ratioP1;P2;durP2;ratioP2
65665;SDS011;52365;47.464;18.976;2023-06-14T00:00:14;4.22;;;2.72;;
65665;SDS011;52365;47.464;18.976;2023-06-14T00:00:35;4.70;;;2.78;;
65665;SDS011;52365;47.464;18.976;2023-06-14T00:00:59;4.87;;;2.72;;
65665;SDS011;52365;47.464;18.976;2023-06-14T00:01:23;5.18;;;2.53;;
65665;SDS011;52365;47.464;18.976;2023-06-14T00:01:44;5.95;;;2.58;;
65665;SDS011;52365;47.464;18.976;2023-06-14T00:02:09;3.90;;;2.47;;
65665;SDS011;52365;47.464;18.976;2023-06-14T00:02:30;4.12;;;2.50;;
65665;SDS011;52365;47.464;18.976;2023-06-14T00:02:51;5.12;;;2.80;;
65665;SDS011;52365;47.464;18.976;2023-06-14T00:03:11;5.15;;;2.67;;
65665;SDS011;52365;47.464;18.976;2023-06-14T00:03:37;4.75;;;2.70;;
65665;SDS011;52365;47.464;18.976;2023-06-14T00:04:00;4.87;;;2.75;;
65665;SDS011;52365;47.464;18.976;2023-06-14T00:04:25;4.25;;;2.60;;
65665;SDS011;52365;47.464;18.976;2023-06-14T00:04:46;4.62;;;2.80;;
65665;SDS011;52365;47.464;18.976;2023-06-14T00:05:08;5.12;;;2.90;;
65665;SDS011;52365;47.464;18.976;2023-06-14T00:05:29;4.18;;;2.80;;
65665;SDS011;52365;47.464;18.976;2023-06-14T00:05:54;4.03;;;2.60;;
65665;SDS011;52365;47.464;18.976;2023-06-14T00:06:15;4.60;;;2.60;;
65665;SDS011;52365;47.464;18.976;2023-06-14T00:06:36;4.70;;;2.65;;
65665;SDS011;52365;47.464;18.976;2023-06-14T00:06:57;4.22;;;2.58;;
65665;SDS011;52365;47.464;18.976;2023-06-14T00:07:20;3.85;;;2.65;;
65665;SDS011;52365;47.464;18.976;2023-06-14T00:07:53;3.80;;;2.90;;
65665;SDS011;52365;47.464;18.976;2023-06-14T00:08:14;3.97;;;3.00;;
65665;SDS011;52365;47.464;18.976;2023-06-14T00:08:35;4.62;;;2.92;;
65665;SDS011;52365;47.464;18.976;2023-06-14T00:08:56;6.30;;;2.80;;
65665;SDS011;52365;47.464;18.976;2023-06-14T00:09:18;5.62;;;2.80;;
65665;SDS011;52365;47.464;18.976;2023-06-14T00:09:39;5.22;;;2.67;;
65665;SDS011;52365;47.464;18.976;2023-06-14T00:10:00;6.60;;;2.90;;
65665;SDS011;52365;47.464;18.976;2023-06-14T00:10:21;4.97;;;2.80;;
65665;SDS011;52365;47.464;18.976;2023-06-14T00:10:42;4.75;;;2.62;;
65665;SDS011;52365;47.464;18.976;2023-06-14T00:11:03;5.05;;;2.70;;
65665;SDS011;52365;47.464;18.976;2023-06-14T00:11:24;4.80;;;2.60;;
65665;SDS011;52365;47.464;18.976;2023-06-14T00:11:47;4.53;;;2.97;;
65665;SDS011;52365;47.464;18.976;2023-06-14T00:12:08;5.55;;;3.00;;
65665;SDS011;52365;47.464;18.976;2023-06-14T00:12:29;4.45;;;2.83;;
65665;SDS011;52365;47.464;18.976;2023-06-14T00:12:51;5.65;;;2.97;;
65665;SDS011;52365;47.464;18.976;2023-06-14T00:13:11;4.45;;;2.55;;
65665;SDS011;52365;47.464;18.976;2023-06-14T00:13:33;5.15;;;2.72;;
65665;SDS011;52365;47.464;18.976;2023-06-14T00:13:54;4.87;;;3.00;;
65665;SDS011;52365;47.464;18.976;2023-06-14T00:14:15;4.97;;;3.08;;
65665;SDS011;52365;47.464;18.976;2023-06-14T00:14:36;4.47;;;2.70;;
65665;SDS011;52365;47.464;18.976;2023-06-14T00:14:57;5.28;;;2.80;;
65665;SDS011;52365;47.464;18.976;2023-06-14T00:15:18;4.30;;;3.03;;
65665;SDS011;52365;47.464;18.976;2023-06-14T00:15:39;4.15;;;2.90;;
65665;SDS011;52365;47.464;18.976;2023-06-14T00:16:00;4.37;;;2.92;;
65665;SDS011;52365;47.464;18.976;2023-06-14T00:16:21;5.15;;;2.80;;
65665;SDS011;52365;47.464;18.976;2023-06-14T00:16:43;5.22;;;3.00;;
65665;SDS011;52365;47.464;18.976;2023-06-14T00:17:04;6.80;;;3.03;;
65665;SDS011;52365;47.464;18.976;2023-06-14T00:17:25;6.70;;;3.12;;
65665;SDS011;52365;47.464;18.976;2023-06-14T00:17:50;7.55;;;3.17;;
65665;SDS011;52365;47.464;18.976;2023-06-14T00:18:11;5.53;;;2.90;;
65665;SDS011;52365;47.464;18.976;2023-06-14T00:18:32;4.70;;;2.90;;
65665;SDS011;52365;47.464;18.976;2023-06-14T00:18:53;5.65;;;3.10;;
65665;SDS011;52365;47.464;18.976;2023-06-14T00:19:14;5.45;;;2.90;;
65665;SDS011;52365;47.464;18.976;2023-06-14T00:19:36;4.72;;;2.90;;
65665;SDS011;52365;47.464;18.976;2023-06-14T00:19:57;4.32;;;2.60;;
65665;SDS011;52365;47.464;18.976;2023-06-14T00:20:19;5.50;;;2.80;;
65665;SDS011;52365;47.464;18.976;2023-06-14T00:20:40;5.10;;;2.97;;
65665;SDS011;52365;47.464;18.976;2023-06-14T00:21:03;4.62;;;2.78;;
65665;SDS011;52365;47.464;18.976;2023-06-14T00:21:24;5.70;;;2.90;;
65665;SDS011;52365;47.464;18.976;2023-06-14T00:21:45;4.37;;;2.78;;
65665;SDS011;52365;47.464;18.976;2023-06-14T00:22:07;6.20;;;2.90;;
65665;SDS011;52365;47.464;18.976;2023-06-14T00:22:28;5.60;;;3.10;;
65665;SDS011;52365;47.464;18.976;2023-06-14T00:22:51;4.57;;;3.10;;
65665;SDS011;52365;47.464;18.976;2023-06-14T00:23:12;7.18;;;2.90;;
65665;SDS011;52365;47.464;18.976;2023-06-14T00:23:33;6.90;;;2.97;;
65665;SDS011;52365;47.464;18.976;2023-06-14T00:23:54;6.25;;;3.08;;
65665;SDS011;52365;47.464;18.976;2023-06-14T00:24:15;5.82;;;3.00;;
65665;SDS011;52365;47.464;18.976;2023-06-14T00:24:36;7.10;;;3.00;;
65665;SDS011;52365;47.464;18.976;2023-06-14T00:24:58;5.57;;;3.05;;
65665;SDS011;52365;47.464;18.976;2023-06-14T00:25:19;5.00;;;3.17;;
65665;SDS011;52365;47.464;18.976;2023-06-14T00:25:40;5.15;;;2.90;;
65665;SDS011;52365;47.464;18.976;2023-06-14T00:26:01;4.65;;;3.10;;
65665;SDS011;52365;47.464;18.976;2023-06-14T00:26:22;6.60;;;3.20;;
65665;SDS011;52365;47.464;18.976;2023-06-14T00:26:43;5.47;;;3.10;;
65665;SDS011;52365;47.464;18.976;2023-06-14T00:27:04;5.32;;;3.10;;
65665;SDS011;52365;47.464;18.976;2023-06-14T00:27:26;6.25;;;2.90;;
65665;SDS011;52365;47.464;18.976;2023-06-14T00:27:46;5.18;;;3.15;;
65665;SDS011;52365;47.464;18.976;2023-06-14T00:28:07;6.93;;;3.08;;
65665;SDS011;52365;47.464;18.976;2023-06-14T00:28:28;5.62;;;3.28;;
65665;SDS011;52365;47.464;18.976;2023-06-14T00:28:49;4.75;;;3.00;;
65665;SDS011;52365;47.464;18.976;2023-06-14T00:29:10;5.25;;;2.80;;
65665;SDS011;52365;47.464;18.976;2023-06-14T00:29:31;4.85;;;3.10;;
65665;SDS011;52365;47.464;18.976;2023-06-14T00:29:52;4.77;;;2.83;;
65665;SDS011;52365;47.464;18.976;2023-06-14T00:30:13;5.15;;;2.90;;
65665;SDS011;52365;47.464;18.976;2023-06-14T00:30:35;4.25;;;3.00;;
65665;SDS011;52365;47.464;18.976;2023-06-14T00:30:56;4.43;;;3.10;;
65665;SDS011;52365;47.464;18.976;2023-06-14T00:31:17;4.85;;;2.92;;
65665;SDS011;52365;47.464;18.976;2023-06-14T00:31:38;5.18;;;2.80;;
65665;SDS011;52365;47.464;18.976;2023-06-14T00:31:59;5.25;;;2.95;;
65665;SDS011;52365;47.464;18.976;2023-06-14T00:32:20;5.30;;;3.40;;
65665;SDS011;52365;47.464;18.976;2023-06-14T00:32:45;5.53;;;3.25;;
65665;SDS011;52365;47.464;18.976;2023-06-14T00:33:06;5.40;;;2.80;;
65665;SDS011;52365;47.464;18.976;2023-06-14T00:33:27;4.93;;;2.95;;
65665;SDS011;52365;47.464;18.976;2023-06-14T00:33:48;6.28;;;3.42;;
65665;SDS011;52365;47.464;18.976;2023-06-14T00:34:09;6.82;;;3.55;;
65665;SDS011;52365;47.464;18.976;2023-06-14T00:34:30;4.75;;;2.95;;
65665;SDS011;52365;47.464;18.976;2023-06-14T00:34:51;5.82;;;3.20;;
65665;SDS011;52365;47.464;18.976;2023-06-14T00:35:13;5.28;;;3.10;;
65665;SDS011;52365;47.464;18.976;2023-06-14T00:35:34;5.25;;;2.80;;
65665;SDS011;52365;47.464;18.976;2023-06-14T00:35:55;4.82;;;3.15;;
65665;SDS011;52365;47.464;18.976;2023-06-14T00:36:16;5.43;;;3.22;;
65665;SDS011;52365;47.464;18.976;2023-06-14T00:36:37;5.95;;;3.28;;
65665;SDS011;52365;47.464;18.976;2023-06-14T00:36:58;5.95;;;3.25;;
65665;SDS011;52365;47.464;18.976;2023-06-14T00:37:20;6.12;;;3.60;;
65665;SDS011;52365;47.464;18.976;2023-06-14T00:37:41;5.93;;;3.37;;
65665;SDS011;52365;47.464;18.976;2023-06-14T00:38:02;4.87;;;3.12;;
65665;SDS011;52365;47.464;18.976;2023-06-14T00:38:23;5.72;;;3.20;;
65665;SDS011;52365;47.464;18.976;2023-06-14T00:38:44;5.40;;;3.25;;
65665;SDS011;52365;47.464;18.976;2023-06-14T00:39:05;5.05;;;3.22;;
65665;SDS011;52365;47.464;18.976;2023-06-14T00:39:26;6.20;;;3.60;;
65665;SDS011;52365;47.464;18.976;2023-06-14T00:39:47;6.50;;;3.42;;
65665;SDS011;52365;47.464;18.976;2023-06-14T00:40:08;5.40;;;3.60;;
65665;SDS011;52365;47.464;18.976;2023-06-14T00:40:29;5.60;;;3.60;;
65665;SDS011;52365;47.464;18.976;2023-06-14T00:40:50;5.93;;;3.45;;
65665;SDS011;52365;47.464;18.976;2023-06-14T00:41:11;6.57;;;3.60;;
65665;SDS011;52365;47.464;18.976;2023-06-14T00:41:32;6.30;;;3.55;;
65665;SDS011;52365;47.464;18.976;2023-06-14T00:41:53;6.68;;;3.55;;
65665;SDS011;52365;47.464;18.976;2023-06-14T00:42:27;5.57;;;3.47;;
65665;SDS011;52365;47.464;18.976;2023-06-14T00:42:49;6.05;;;3.33;;
65665;SDS011;52365;47.464;18.976;2023-06-14T00:43:10;5.60;;;3.25;;
65665;SDS011;52365;47.464;18.976;2023-06-14T00:43:31;4.97;;;3.20;;
65665;SDS011;52365;47.464;18.976;2023-06-14T00:43:55;5.05;;;3.12;;
65665;SDS011;52365;47.464;18.976;2023-06-14T00:44:17;5.10;;;3.33;;
65665;SDS011;52365;47.464;18.976;2023-06-14T00:44:38;5.03;;;3.50;;
65665;SDS011;52365;47.464;18.976;2023-06-14T00:44:59;6.95;;;3.53;;
65665;SDS011;52365;47.464;18.976;2023-06-14T00:45:20;5.68;;;3.35;;
65665;SDS011;52365;47.464;18.976;2023-06-14T00:45:41;5.32;;;3.53;;
65665;SDS011;52365;47.464;18.976;2023-06-14T00:46:02;5.60;;;3.33;;
65665;SDS011;52365;47.464;18.976;2023-06-14T00:46:23;6.03;;;3.47;;
65665;SDS011;52365;47.464;18.976;2023-06-14T00:46:45;5.12;;;3.22;;
65665;SDS011;52365;47.464;18.976;2023-06-14T00:47:06;6.00;;;3.35;;
65665;SDS011;52365;47.464;18.976;2023-06-14T00:47:27;8.10;;;3.58;;
65665;SDS011;52365;47.464;18.976;2023-06-14T00:47:48;5.53;;;3.62;;
65665;SDS011;52365;47.464;18.976;2023-06-14T00:48:13;5.10;;;3.45;;
65665;SDS011;52365;47.464;18.976;2023-06-14T00:48:35;5.50;;;3.30;;
65665;SDS011;52365;47.464;18.976;2023-06-14T00:48:58;5.22;;;3.53;;
65665;SDS011;52365;47.464;18.976;2023-06-14T00:49:20;5.37;;;3.45;;
65665;SDS011;52365;47.464;18.976;2023-06-14T00:49:41;4.85;;;3.30;;
65665;SDS011;52365;47.464;18.976;2023-06-14T00:50:02;5.80;;;3.50;;
65665;SDS011;52365;47.464;18.976;2023-06-14T00:50:28;6.85;;;3.75;;
65665;SDS011;52365;47.464;18.976;2023-06-14T00:50:50;6.03;;;3.90;;
65665;SDS011;52365;47.464;18.976;2023-06-14T00:51:13;5.40;;;3.65;;
65665;SDS011;52365;47.464;18.976;2023-06-14T00:51:34;5.15;;;3.30;;
65665;SDS011;52365;47.464;18.976;2023-06-14T00:51:55;5.53;;;3.53;;
65665;SDS011;52365;47.464;18.976;2023-06-14T00:52:16;7.07;;;3.87;;
65665;SDS011;52365;47.464;18.976;2023-06-14T00:52:38;8.18;;;3.80;;
65665;SDS011;52365;47.464;18.976;2023-06-14T00:53:00;5.50;;;3.70;;
65665;SDS011;52365;47.464;18.976;2023-06-14T00:53:22;7.32;;;3.83;;
65665;SDS011;52365;47.464;18.976;2023-06-14T00:53:44;5.93;;;3.60;;
65665;SDS011;52365;47.464;18.976;2023-06-14T00:54:07;5.00;;;3.67;;
65665;SDS011;52365;47.464;18.976;2023-06-14T00:54:28;6.18;;;3.58;;
65665;SDS011;52365;47.464;18.976;2023-06-14T00:54:50;6.78;;;3.58;;
65665;SDS011;52365;47.464;18.976;2023-06-14T00:55:11;6.12;;;3.90;;
65665;SDS011;52365;47.464;18.976;2023-06-14T00:55:32;6.50;;;3.70;;
65665;SDS011;52365;47.464;18.976;2023-06-14T00:55:53;7.00;;;3.97;;
65665;SDS011;52365;47.464;18.976;2023-06-14T00:56:14;6.35;;;3.60;;
65665;SDS011;52365;47.464;18.976;2023-06-14T00:56:36;5.73;;;3.70;;
65665;SDS011;52365;47.464;18.976;2023-06-14T00:56:57;6.05;;;3.85;;
65665;SDS011;52365;47.464;18.976;2023-06-14T00:57:18;5.72;;;3.47;;
65665;SDS011;52365;47.464;18.976;2023-06-14T00:57:41;6.57;;;3.80;;
65665;SDS011;52365;47.464;18.976;2023-06-14T00:58:02;6.70;;;3.95;;
65665;SDS011;52365;47.464;18.976;2023-06-14T00:58:23;6.37;;;3.80;;
65665;SDS011;52365;47.464;18.976;2023-06-14T00:58:44;6.20;;;4.00;;
65665;SDS011;52365;47.464;18.976;2023-06-14T00:59:05;6.80;;;4.10;;
65665;SDS011;52365;47.464;18.976;2023-06-14T00:59:27;7.07;;;4.00;;
65665;SDS011;52365;47.464;18.976;2023-06-14T00:59:48;6.57;;;3.60;;
65665;SDS011;52365;47.464;18.976;2023-06-14T01:00:09;6.82;;;3.75;;
65665;SDS011;52365;47.464;18.976;2023-06-14T01:00:32;6.03;;;3.90;;
65665;SDS011;52365;47.464;18.976;2023-06-14T01:00:53;5.65;;;3.80;;
65665;SDS011;52365;47.464;18.976;2023-06-14T01:01:15;5.95;;;3.75;;
65665;SDS011;52365;47.464;18.976;2023-06-14T01:01:35;5.55;;;3.85;;
65665;SDS011;52365;47.464;18.976;2023-06-14T01:01:57;5.82;;;3.95;;
65665;SDS011;52365;47.464;18.976;2023-06-14T01:02:18;7.20;;;3.80;;
65665;SDS011;52365;47.464;18.976;2023-06-14T01:02:39;8.43;;;3.78;;
65665;SDS011;52365;47.464;18.976;2023-06-14T01:03:00;6.22;;;3.80;;
65665;SDS011;52365;47.464;18.976;2023-06-14T01:03:23;5.78;;;3.90;;
65665;SDS011;52365;47.464;18.976;2023-06-14T01:03:44;5.20;;;3.83;;
65665;SDS011;52365;47.464;18.976;2023-06-14T01:04:06;5.15;;;3.72;;
65665;SDS011;52365;47.464;18.976;2023-06-14T01:04:27;7.57;;;4.07;;
65665;SDS011;52365;47.464;18.976;2023-06-14T01:04:48;7.47;;;3.87;;
65665;SDS011;52365;47.464;18.976;2023-06-14T01:05:10;6.45;;;3.90;;
65665;SDS011;52365;47.464;18.976;2023-06-14T01:05:32;5.22;;;3.80;;
65665;SDS011;52365;47.464;18.976;2023-06-14T01:05:58;5.68;;;3.80;;
65665;SDS011;52365;47.464;18.976;2023-06-14T01:07:18;6.45;;;4.03;;
65665;SDS011;52365;47.464;18.976;2023-06-14T01:08:27;6.70;;;4.00;;
65665;SDS011;52365;47.464;18.976;2023-06-14T01:09:37;7.78;;;4.25;;
65665;SDS011;52365;47.464;18.976;2023-06-14T01:11:22;7.72;;;4.45;;
65665;SDS011;52365;47.464;18.976;2023-06-14T01:12:26;6.55;;;4.25;;
65665;SDS011;52365;47.464;18.976;2023-06-14T01:13:40;6.85;;;4.20;;
65665;SDS011;52365;47.464;18.976;2023-06-14T01:14:06;6.90;;;3.95;;
65665;SDS011;52365;47.464;18.976;2023-06-14T01:14:28;8.10;;;4.37;;
65665;SDS011;52365;47.464;18.976;2023-06-14T01:14:52;6.22;;;4.10;;
65665;SDS011;52365;47.464;18.976;2023-06-14T01:15:15;6.20;;;4.05;;
65665;SDS011;52365;47.464;18.976;2023-06-14T01:15:36;7.12;;;4.20;;
65665;SDS011;52365;47.464;18.976;2023-06-14T01:15:59;6.75;;;4.20;;
65665;SDS011;52365;47.464;18.976;2023-06-14T01:16:20;7.12;;;4.32;;
65665;SDS011;52365;47.464;18.976;2023-06-14T01:16:41;8.13;;;4.37;;
65665;SDS011;52365;47.464;18.976;2023-06-14T01:17:02;6.12;;;4.15;;
65665;SDS011;52365;47.464;18.976;2023-06-14T01:17:25;7.18;;;4.53;;
65665;SDS011;52365;47.464;18.976;2023-06-14T01:17:48;7.12;;;4.32;;
65665;SDS011;52365;47.464;18.976;2023-06-14T01:18:12;7.47;;;4.53;;
65665;SDS011;52365;47.464;18.976;2023-06-14T01:18:44;6.93;;;4.25;;
65665;SDS011;52365;47.464;18.976;2023-06-14T01:19:10;7.15;;;4.20;;
65665;SDS011;52365;47.464;18.976;2023-06-14T01:19:34;6.65;;;4.28;;
65665;SDS011;52365;47.464;18.976;2023-06-14T01:19:55;7.53;;;4.72;;
65665;SDS011;52365;47.464;18.976;2023-06-14T01:20:21;8.23;;;4.65;;
65665;SDS011;52365;47.464;18.976;2023-06-14T01:20:43;7.82;;;4.45;;
65665;SDS011;52365;47.464;18.976;2023-06-14T01:21:22;7.05;;;4.43;;
65665;SDS011;52365;47.464;18.976;2023-06-14T01:21:44;6.68;;;4.50;;
65665;SDS011;52365;47.464;18.976;2023-06-14T01:22:05;6.95;;;4.72;;
65665;SDS011;52365;47.464;18.976;2023-06-14T01:22:26;6.45;;;4.50;;
65665;SDS011;52365;47.464;18.976;2023-06-14T01:22:54;6.62;;;4.60;;
65665;SDS011;52365;47.464;18.976;2023-06-14T01:23:16;7.32;;;4.50;;
65665;SDS011;52365;47.464;18.976;2023-06-14T01:23:38;6.93;;;4.40;;
65665;SDS011;52365;47.464;18.976;2023-06-14T01:23:59;7.03;;;4.12;;
65665;SDS011;52365;47.464;18.976;2023-06-14T01:24:20;7.32;;;4.15;;
65665;SDS011;52365;47.464;18.976;2023-06-14T01:24:46;6.72;;;4.50;;
65665;SDS011;52365;47.464;18.976;2023-06-14T01:25:07;6.30;;;4.47;;
65665;SDS011;52365;47.464;18.976;2023-06-14T01:25:28;7.03;;;4.15;;
65665;SDS011;52365;47.464;18.976;2023-06-14T01:25:49;7.95;;;4.60;;
65665;SDS011;52365;47.464;18.976;2023-06-14T01:26:13;7.20;;;4.45;;
65665;SDS011;52365;47.464;18.976;2023-06-14T01:26:36;8.02;;;4.72;;
65665;SDS011;52365;47.464;18.976;2023-06-14T01:26:59;6.43;;;4.57;;
65665;SDS011;52365;47.464;18.976;2023-06-14T01:27:24;6.60;;;4.50;;
65665;SDS011;52365;47.464;18.976;2023-06-14T01:27:53;7.22;;;4.20;;
65665;SDS011;52365;47.464;18.976;2023-06-14T01:28:19;7.47;;;4.62;;
65665;SDS011;52365;47.464;18.976;2023-06-14T01:28:41;6.82;;;4.45;;
65665;SDS011;52365;47.464;18.976;2023-06-14T01:29:02;7.43;;;4.47;;
65665;SDS011;52365;47.464;18.976;2023-06-14T01:29:23;8.10;;;4.50;;
65665;SDS011;52365;47.464;18.976;2023-06-14T01:29:48;8.13;;;4.90;;
65665;SDS011;52365;47.464;18.976;2023-06-14T01:30:09;7.65;;;4.87;;
65665;SDS011;52365;47.464;18.976;2023-06-14T01:30:31;7.57;;;4.32;;
65665;SDS011;52365;47.464;18.976;2023-06-14T01:30:54;6.80;;;4.35;;
65665;SDS011;52365;47.464;18.976;2023-06-14T01:31:19;6.72;;;4.60;;
65665;SDS011;52365;47.464;18.976;2023-06-14T01:31:42;7.65;;;4.87;;
65665;SDS011;52365;47.464;18.976;2023-06-14T01:32:03;6.72;;;4.50;;
65665;SDS011;52365;47.464;18.976;2023-06-14T01:32:25;7.00;;;5.03;;
65665;SDS011;52365;47.464;18.976;2023-06-14T01:32:48;8.73;;;4.90;;
65665;SDS011;52365;47.464;18.976;2023-06-14T01:33:14;9.15;;;4.82;;
65665;SDS011;52365;47.464;18.976;2023-06-14T01:33:36;7.15;;;4.80;;
65665;SDS011;52365;47.464;18.976;2023-06-14T01:33:57;7.05;;;4.80;;
65665;SDS011;52365;47.464;18.976;2023-06-14T01:34:19;8.63;;;4.87;;
65665;SDS011;52365;47.464;18.976;2023-06-14T01:34:40;10.18;;;5.15;;
65665;SDS011;52365;47.464;18.976;2023-06-14T01:35:01;9.70;;;5.03;;
65665;SDS011;52365;47.464;18.976;2023-06-14T01:35:22;9.07;;;4.97;;
65665;SDS011;52365;47.464;18.976;2023-06-14T01:35:46;8.02;;;4.85;;
65665;SDS011;52365;47.464;18.976;2023-06-14T01:36:08;7.10;;;5.10;;
65665;SDS011;52365;47.464;18.976;2023-06-14T01:36:30;8.93;;;5.43;;
65665;SDS011;52365;47.464;18.976;2023-06-14T01:36:51;7.75;;;5.18;;
65665;SDS011;52365;47.464;18.976;2023-06-14T01:37:15;7.45;;;5.00;;
65665;SDS011;52365;47.464;18.976;2023-06-14T01:37:37;7.43;;;4.78;;
65665;SDS011;52365;47.464;18.976;2023-06-14T01:38:00;7.93;;;4.78;;
65665;SDS011;52365;47.464;18.976;2023-06-14T01:38:24;7.43;;;4.55;;
65665;SDS011;52365;47.464;18.976;2023-06-14T01:38:47;8.88;;;5.30;;
65665;SDS011;52365;47.464;18.976;2023-06-14T01:39:14;8.23;;;5.37;;
65665;SDS011;52365;47.464;18.976;2023-06-14T01:39:38;8.80;;;5.78;;
65665;SDS011;52365;47.464;18.976;2023-06-14T01:39:59;8.20;;;5.57;;
65665;SDS011;52365;47.464;18.976;2023-06-14T01:40:22;7.68;;;5.30;;
65665;SDS011;52365;47.464;18.976;2023-06-14T01:40:44;9.30;;;5.45;;
65665;SDS011;52365;47.464;18.976;2023-06-14T01:41:06;9.90;;;5.18;;
65665;SDS011;52365;47.464;18.976;2023-06-14T01:41:27;10.20;;;5.40;;
65665;SDS011;52365;47.464;18.976;2023-06-14T01:41:50;8.57;;;5.18;;
65665;SDS011;52365;47.464;18.976;2023-06-14T01:42:12;8.18;;;5.15;;
65665;SDS011;52365;47.464;18.976;2023-06-14T01:42:34;7.37;;;5.07;;
65665;SDS011;52365;47.464;18.976;2023-06-14T01:42:57;7.15;;;5.00;;
65665;SDS011;52365;47.464;18.976;2023-06-14T01:43:19;9.18;;;5.18;;
65665;SDS011;52365;47.464;18.976;2023-06-14T01:43:41;9.50;;;5.25;;
65665;SDS011;52365;47.464;18.976;2023-06-14T01:44:03;7.62;;;5.00;;
65665;SDS011;52365;47.464;18.976;2023-06-14T01:44:25;7.35;;;5.20;;
65665;SDS011;52365;47.464;18.976;2023-06-14T01:44:48;8.30;;;5.40;;
65665;SDS011;52365;47.464;18.976;2023-06-14T01:45:10;9.93;;;5.68;;
65665;SDS011;52365;47.464;18.976;2023-06-14T01:45:32;8.23;;;5.18;;
65665;SDS011;52365;47.464;18.976;2023-06-14T01:45:55;9.70;;;5.20;;
65665;SDS011;52365;47.464;18.976;2023-06-14T01:46:17;7.45;;;5.03;;
65665;SDS011;52365;47.464;18.976;2023-06-14T01:46:40;9.63;;;5.32;;
65665;SDS011;52365;47.464;18.976;2023-06-14T01:47:02;8.98;;;5.18;;
65665;SDS011;52365;47.464;18.976;2023-06-14T01:47:23;8.07;;;5.22;;
65665;SDS011;52365;47.464;18.976;2023-06-14T01:47:45;8.60;;;5.45;;
65665;SDS011;52365;47.464;18.976;2023-06-14T01:48:08;8.60;;;5.87;;
65665;SDS011;52365;47.464;18.976;2023-06-14T01:48:29;8.80;;;5.75;;
65665;SDS011;52365;47.464;18.976;2023-06-14T01:48:50;9.73;;;5.90;;
65665;SDS011;52365;47.464;18.976;2023-06-14T01:49:11;9.25;;;5.82;;
65665;SDS011;52365;47.464;18.976;2023-06-14T01:49:35;9.38;;;5.47;;
65665;SDS011;52365;47.464;18.976;2023-06-14T01:49:56;10.35;;;5.65;;
65665;SDS011;52365;47.464;18.976;2023-06-14T01:50:19;9.73;;;5.43;;
65665;SDS011;52365;47.464;18.976;2023-06-14T01:50:41;8.77;;;5.65;;
65665;SDS011;52365;47.464;18.976;2023-06-14T01:51:02;8.23;;;5.45;;
65665;SDS011;52365;47.464;18.976;2023-06-14T01:51:23;8.23;;;5.60;;
65665;SDS011;52365;47.464;18.976;2023-06-14T01:51:44;9.10;;;5.65;;
65665;SDS011;52365;47.464;18.976;2023-06-14T01:52:05;10.05;;;5.62;;
65665;SDS011;52365;47.464;18.976;2023-06-14T01:52:27;9.48;;;6.00;;
65665;SDS011;52365;47.464;18.976;2023-06-14T01:52:48;8.50;;;5.75;;
65665;SDS011;52365;47.464;18.976;2023-06-14T01:53:09;9.07;;;5.85;;
65665;SDS011;52365;47.464;18.976;2023-06-14T01:53:31;9.75;;;5.87;;
65665;SDS011;52365;47.464;18.976;2023-06-14T01:53:52;8.82;;;5.80;;
65665;SDS011;52365;47.464;18.976;2023-06-14T01:54:13;9.07;;;5.85;;
65665;SDS011;52365;47.464;18.976;2023-06-14T01:54:34;9.85;;;6.10;;
65665;SDS011;52365;47.464;18.976;2023-06-14T01:54:55;9.65;;;5.93;;
65665;SDS011;52365;47.464;18.976;2023-06-14T01:55:16;9.90;;;6.10;;
65665;SDS011;52365;47.464;18.976;2023-06-14T01:55:38;8.82;;;5.82;;
65665;SDS011;52365;47.464;18.976;2023-06-14T01:56:03;8.35;;;5.60;;
65665;SDS011;52365;47.464;18.976;2023-06-14T01:56:24;9.10;;;5.57;;
65665;SDS011;52365;47.464;18.976;2023-06-14T01:56:46;8.52;;;5.95;;
65665;SDS011;52365;47.464;18.976;2023-06-14T01:57:08;9.73;;;5.72;;
65665;SDS011;52365;47.464;18.976;2023-06-14T01:57:29;10.93;;;5.90;;
65665;SDS011;52365;47.464;18.976;2023-06-14T01:57:51;10.18;;;6.20;;
65665;SDS011;52365;47.464;18.976;2023-06-14T01:58:12;9.60;;;5.97;;
65665;SDS011;52365;47.464;18.976;2023-06-14T01:58:33;9.02;;;5.95;;
65665;SDS011;52365;47.464;18.976;2023-06-14T01:58:55;10.30;;;6.50;;
65665;SDS011;52365;47.464;18.976;2023-06-14T01:59:16;9.98;;;6.57;;
65665;SDS011;52365;47.464;18.976;2023-06-14T01:59:38;9.45;;;6.18;;
65665;SDS011;52365;47.464;18.976;2023-06-14T01:59:59;9.15;;;5.93;;
65665;SDS011;52365;47.464;18.976;2023-06-14T02:00:20;9.18;;;6.00;;
65665;SDS011;52365;47.464;18.976;2023-06-14T02:00:42;9.95;;;6.18;;
65665;SDS011;52365;47.464;18.976;2023-06-14T02:01:04;10.00;;;6.32;;
65665;SDS011;52365;47.464;18.976;2023-06-14T02:01:25;10.63;;;6.28;;
65665;SDS011;52365;47.464;18.976;2023-06-14T02:01:47;10.38;;;6.30;;
65665;SDS011;52365;47.464;18.976;2023-06-14T02:02:08;9.63;;;6.25;;
65665;SDS011;52365;47.464;18.976;2023-06-14T02:02:29;9.15;;;6.25;;
65665;SDS011;52365;47.464;18.976;2023-06-14T02:02:50;12.15;;;6.47;;
65665;SDS011;52365;47.464;18.976;2023-06-14T02:03:11;10.50;;;6.32;;
65665;SDS011;52365;47.464;18.976;2023-06-14T02:03:33;9.98;;;6.40;;
65665;SDS011;52365;47.464;18.976;2023-06-14T02:03:54;10.70;;;6.40;;
65665;SDS011;52365;47.464;18.976;2023-06-14T02:04:15;10.20;;;6.20;;
65665;SDS011;52365;47.464;18.976;2023-06-14T02:04:36;9.60;;;6.12;;
65665;SDS011;52365;47.464;18.976;2023-06-14T02:04:57;11.10;;;6.53;;
65665;SDS011;52365;47.464;18.976;2023-06-14T02:05:18;11.15;;;6.47;;
65665;SDS011;52365;47.464;18.976;2023-06-14T02:05:40;11.20;;;6.47;;
65665;SDS011;52365;47.464;18.976;2023-06-14T02:06:02;12.35;;;6.30;;
65665;SDS011;52365;47.464;18.976;2023-06-14T02:06:23;10.75;;;6.10;;
65665;SDS011;52365;47.464;18.976;2023-06-14T02:06:45;9.82;;;6.10;;
65665;SDS011;52365;47.464;18.976;2023-06-14T02:07:06;9.98;;;6.32;;
65665;SDS011;52365;47.464;18.976;2023-06-14T02:07:27;9.13;;;6.07;;
65665;SDS011;52365;47.464;18.976;2023-06-14T02:07:48;9.57;;;6.35;;
65665;SDS011;52365;47.464;18.976;2023-06-14T02:08:09;10.60;;;6.35;;
65665;SDS011;52365;47.464;18.976;2023-06-14T02:08:30;11.80;;;6.30;;
65665;SDS011;52365;47.464;18.976;2023-06-14T02:08:51;10.02;;;6.30;;
65665;SDS011;52365;47.464;18.976;2023-06-14T02:09:12;10.05;;;6.53;;
65665;SDS011;52365;47.464;18.976;2023-06-14T02:09:33;10.18;;;6.40;;
65665;SDS011;52365;47.464;18.976;2023-06-14T02:09:54;9.95;;;6.10;;
65665;SDS011;52365;47.464;18.976;2023-06-14T02:10:15;9.70;;;6.28;;
65665;SDS011;52365;47.464;18.976;2023-06-14T02:10:38;10.48;;;6.20;;
65665;SDS011;52365;47.464;18.976;2023-06-14T02:10:59;10.23;;;6.57;;
65665;SDS011;52365;47.464;18.976;2023-06-14T02:11:20;10.23;;;6.80;;
65665;SDS011;52365;47.464;18.976;2023-06-14T02:11:41;10.82;;;6.50;;
65665;SDS011;52365;47.464;18.976;2023-06-14T02:12:02;10.47;;;6.47;;
65665;SDS011;52365;47.464;18.976;2023-06-14T02:12:23;9.90;;;6.22;;
65665;SDS011;52365;47.464;18.976;2023-06-14T02:12:44;10.23;;;6.53;;
65665;SDS011;52365;47.464;18.976;2023-06-14T02:13:06;9.90;;;6.75;;
65665;SDS011;52365;47.464;18.976;2023-06-14T02:13:27;10.18;;;6.93;;
65665;SDS011;52365;47.464;18.976;2023-06-14T02:13:48;10.95;;;6.68;;
65665;SDS011;52365;47.464;18.976;2023-06-14T02:14:09;10.75;;;6.25;;
65665;SDS011;52365;47.464;18.976;2023-06-14T02:14:32;10.48;;;6.62;;
65665;SDS011;52365;47.464;18.976;2023-06-14T02:14:54;11.35;;;6.90;;
65665;SDS011;52365;47.464;18.976;2023-06-14T02:15:15;10.90;;;6.80;;
65665;SDS011;52365;47.464;18.976;2023-06-14T02:15:40;9.75;;;6.60;;